createdAt,value
2018-12-17T00:00:44.706Z,100925.51
2018-12-17T00:01:50.464Z,100922.59
2018-12-17T00:02:55.985Z,100923.88
2018-12-17T00:04:01.491Z,100921.81
2018-12-17T00:05:07.004Z,100921.41
2018-12-17T00:06:12.674Z,100929.89
2018-12-17T00:07:18.222Z,100928.14
2018-12-17T00:08:23.749Z,100929.39
2018-12-17T00:09:29.427Z,100931.50
2018-12-17T00:10:34.928Z,100930.15
2018-12-17T00:11:40.586Z,100938.08
2018-12-17T00:12:46.011Z,100935.63
2018-12-17T00:13:51.821Z,100929.36
2018-12-17T00:14:57.329Z,100934.02
2018-12-17T00:16:03.020Z,100926.47
2018-12-17T00:17:08.504Z,100933.64
2018-12-17T00:18:14.055Z,100930.20
2018-12-17T00:19:19.562Z,100935.19
2018-12-17T00:20:25.394Z,100939.41
2018-12-17T00:21:30.901Z,100939.05
2018-12-17T00:22:36.511Z,100941.09
2018-12-17T00:23:42.604Z,100936.90
2018-12-17T00:24:48.083Z,100936.03
2018-12-17T00:25:53.861Z,100933.45
2018-12-17T00:26:59.413Z,100931.34
2018-12-17T00:28:08.125Z,100933.00
2018-12-17T00:29:12.297Z,100937.66
2018-12-17T00:30:17.834Z,100941.44
2018-12-17T00:31:23.476Z,100948.22
2018-12-17T00:32:29.203Z,100944.00
2018-12-17T00:33:34.802Z,100943.09
2018-12-17T00:34:40.434Z,100940.97
2018-12-17T00:35:45.867Z,100943.11
2018-12-17T00:36:51.360Z,100942.26
2018-12-17T00:37:56.837Z,100950.31
2018-12-17T00:39:02.364Z,100948.22
2018-12-17T00:41:25.271Z,100950.81
2018-12-17T00:42:31.074Z,100947.89
2018-12-17T00:43:36.747Z,100947.91
2018-12-17T00:44:42.172Z,100948.38
2018-12-17T00:45:47.720Z,100948.33
2018-12-17T00:46:53.350Z,100950.02
2018-12-17T00:47:58.795Z,100945.82
2018-12-17T00:49:04.235Z,100950.88
2018-12-17T00:50:09.726Z,100952.98
2018-12-17T00:51:15.151Z,100953.45
2018-12-17T00:52:20.558Z,100951.78
2018-12-17T00:53:25.994Z,100950.93
2018-12-17T00:54:31.441Z,100947.11
2018-12-17T00:55:36.880Z,100948.01
2018-12-17T00:56:42.255Z,100950.52
2018-12-17T00:57:47.696Z,100939.93
2018-12-17T00:58:53.187Z,100946.31
2018-12-17T00:59:58.598Z,100942.94
2018-12-17T01:01:04.022Z,100942.97
2018-12-17T01:02:09.467Z,100941.77
2018-12-17T01:03:14.906Z,100941.27
2018-12-17T01:04:20.311Z,100936.22
2018-12-17T01:05:25.698Z,100944.63
2018-12-17T01:06:31.109Z,100939.97
2018-12-17T01:07:36.666Z,100935.34
2018-12-17T01:08:42.129Z,100937.83
2018-12-17T01:09:47.514Z,100928.97
2018-12-17T01:10:52.955Z,100932.40
2018-12-17T01:11:58.371Z,100935.75
2018-12-17T01:13:03.794Z,100938.30
2018-12-17T01:14:09.293Z,100941.67
2018-12-17T01:15:14.707Z,100941.69
2018-12-17T01:16:20.464Z,100944.69
2018-12-17T01:17:25.870Z,100939.65
2018-12-17T01:18:31.254Z,100940.89
2018-12-17T01:19:36.682Z,100938.83
2018-12-17T01:20:42.175Z,100938.83
2018-12-17T01:21:48.049Z,100938.77
2018-12-17T01:22:53.424Z,100941.75
2018-12-17T01:23:58.864Z,100938.81
2018-12-17T01:25:04.627Z,100943.91
2018-12-17T01:26:10.232Z,100945.94
2018-12-17T01:27:15.698Z,100945.11
2018-12-17T01:28:22.339Z,100945.94
2018-12-17T01:29:28.073Z,100948.93
2018-12-17T01:30:34.322Z,100943.03
2018-12-17T01:31:40.234Z,100943.02
2018-12-17T01:32:45.803Z,100945.98
2018-12-17T01:33:51.232Z,100950.22
2018-12-17T01:34:57.438Z,100954.87
2018-12-17T01:36:02.841Z,100954.01
2018-12-17T01:37:08.242Z,100956.93
2018-12-17T01:38:13.768Z,100957.39
2018-12-17T01:39:19.190Z,100956.17
2018-12-17T01:40:24.581Z,100956.15
2018-12-17T01:41:30.027Z,100958.66
2018-12-17T01:42:35.489Z,100957.01
2018-12-17T01:43:41.222Z,100962.50
2018-12-17T01:44:46.651Z,100964.23
2018-12-17T01:45:52.047Z,100965.05
2018-12-17T01:46:57.459Z,100962.13
2018-12-17T01:48:02.886Z,100967.64
2018-12-17T01:49:08.518Z,100965.97
2018-12-17T01:50:13.983Z,100965.91
2018-12-17T01:51:19.559Z,100968.92
2018-12-17T01:52:24.905Z,100962.59
2018-12-17T01:53:30.350Z,100968.48
2018-12-17T01:54:35.817Z,100969.33
2018-12-17T01:55:41.318Z,100969.76
2018-12-17T01:56:46.691Z,100968.48
2018-12-17T01:57:52.113Z,100974.45
2018-12-17T01:58:57.597Z,100973.17
2018-12-17T02:00:03.156Z,100978.70
2018-12-17T02:01:08.866Z,100977.39
2018-12-17T02:02:14.263Z,100971.03
2018-12-17T02:03:19.722Z,100967.72
2018-12-17T02:04:25.323Z,100963.92
2018-12-17T02:05:30.883Z,100970.66
2018-12-17T02:06:36.415Z,100969.80
2018-12-17T02:07:41.850Z,100968.92
2018-12-17T02:08:47.514Z,100963.05
2018-12-17T02:09:52.992Z,100961.80
2018-12-17T02:10:58.447Z,100958.00
2018-12-17T02:12:03.998Z,100958.86
2018-12-17T02:13:09.392Z,100961.77
2018-12-17T02:14:14.851Z,100955.05
2018-12-17T02:15:20.407Z,100958.78
2018-12-17T02:16:25.849Z,100959.25
2018-12-17T02:17:31.301Z,100963.05
2018-12-17T02:18:36.742Z,100960.13
2018-12-17T02:19:42.228Z,100956.34
2018-12-17T02:20:47.818Z,100958.08
2018-12-17T02:21:53.240Z,100953.42
2018-12-17T02:22:58.648Z,100953.82
2018-12-17T02:24:04.204Z,100955.49
2018-12-17T02:25:09.618Z,100957.63
2018-12-17T02:26:15.083Z,100967.34
2018-12-17T02:27:20.507Z,100958.51
2018-12-17T02:28:25.896Z,100960.61
2018-12-17T02:29:31.306Z,100969.94
2018-12-17T02:30:36.775Z,100967.44
2018-12-17T02:31:42.296Z,100968.73
2018-12-17T02:32:47.967Z,100972.97
2018-12-17T02:33:53.424Z,100971.63
2018-12-17T02:34:58.861Z,100975.81
2018-12-17T02:36:04.321Z,100971.63
2018-12-17T02:37:09.885Z,100974.61
2018-12-17T02:38:15.295Z,100977.95
2018-12-17T02:39:20.704Z,100973.28
2018-12-17T02:40:26.156Z,100974.98
2018-12-17T02:41:31.566Z,100969.48
2018-12-17T02:42:36.985Z,100975.41
2018-12-17T02:43:42.416Z,100969.95
2018-12-17T02:44:47.888Z,100969.11
2018-12-17T02:45:53.287Z,100968.72
2018-12-17T02:46:58.685Z,100969.95
2018-12-17T02:48:04.224Z,100967.88
2018-12-17T02:49:09.651Z,100969.17
2018-12-17T02:50:15.051Z,100970.89
2018-12-17T02:51:20.458Z,100971.75
2018-12-17T02:52:25.909Z,100964.58
2018-12-17T02:53:31.354Z,100973.00
2018-12-17T02:54:36.911Z,100974.28
2018-12-17T02:55:42.337Z,100970.95
2018-12-17T02:56:47.866Z,100976.44
2018-12-17T02:57:53.316Z,100970.50
2018-12-17T02:58:58.757Z,100976.45
2018-12-17T03:00:05.394Z,100973.92
2018-12-17T03:01:10.793Z,100978.11
2018-12-17T03:02:16.211Z,100976.86
2018-12-17T03:03:21.735Z,100981.50
2018-12-17T03:04:27.266Z,100981.50
2018-12-17T03:05:32.820Z,100985.23
2018-12-17T03:06:38.260Z,100976.78
2018-12-17T03:07:43.878Z,100980.20
2018-12-17T03:08:49.357Z,100982.75
2018-12-17T03:09:54.785Z,100981.47
2018-12-17T03:11:00.413Z,100984.86
2018-12-17T03:12:06.135Z,100986.19
2018-12-17T03:13:11.686Z,100985.33
2018-12-17T03:14:17.262Z,100983.24
2018-12-17T03:15:22.760Z,100982.84
2018-12-17T03:16:28.198Z,100993.44
2018-12-17T03:17:33.588Z,100987.94
2018-12-17T03:18:39.014Z,100987.93
2018-12-17T03:19:44.751Z,100989.26
2018-12-17T03:20:50.170Z,100991.77
2018-12-17T03:21:55.597Z,100994.34
2018-12-17T03:23:01.019Z,100993.50
2018-12-17T03:24:06.462Z,100996.92
2018-12-17T03:25:11.948Z,100998.20
2018-12-17T03:26:17.347Z,100993.94
2018-12-17T03:27:22.774Z,101000.23
2018-12-17T03:28:28.335Z,100997.28
2018-12-17T03:29:33.726Z,101001.47
2018-12-17T03:30:39.159Z,101006.11
2018-12-17T03:31:45.518Z,101001.04
2018-12-17T03:32:51.104Z,101004.80
2018-12-17T03:33:56.576Z,101002.30
2018-12-17T03:35:02.134Z,100997.69
2018-12-17T03:36:07.581Z,101001.52
2018-12-17T03:37:13.056Z,100999.42
2018-12-17T03:38:18.471Z,100998.89
2018-12-17T03:39:23.990Z,101000.19
2018-12-17T03:40:29.536Z,101001.42
2018-12-17T03:41:34.964Z,101002.27
2018-12-17T03:42:40.366Z,100998.95
2018-12-17T03:43:45.817Z,101009.03
2018-12-17T03:44:51.256Z,101006.50
2018-12-17T03:45:56.727Z,101006.93
2018-12-17T03:47:02.287Z,101000.97
2018-12-17T03:48:08.298Z,101001.77
2018-12-17T03:49:13.878Z,101002.17
2018-12-17T03:50:19.545Z,101002.55
2018-12-17T03:51:24.972Z,101002.16
2018-12-17T03:52:30.360Z,101008.50
2018-12-17T03:53:35.762Z,101003.05
2018-12-17T03:54:41.224Z,101006.83
2018-12-17T03:55:46.699Z,101003.50
2018-12-17T03:56:52.257Z,101006.52
2018-12-17T03:57:57.691Z,101008.66
2018-12-17T03:59:03.268Z,101004.03
2018-12-17T04:00:09.448Z,101007.86
2018-12-17T04:01:14.866Z,101005.77
2018-12-17T04:02:20.287Z,101003.70
2018-12-17T04:03:25.726Z,101002.45
2018-12-17T04:04:31.216Z,101001.60
2018-12-17T04:05:36.746Z,101004.19
2018-12-17T04:06:42.180Z,101002.91
2018-12-17T04:07:47.618Z,101004.19
2018-12-17T04:08:53.041Z,101003.39
2018-12-17T04:09:58.873Z,101012.23
2018-12-17T04:11:05.302Z,101010.14
2018-12-17T04:12:10.738Z,101008.41
2018-12-17T04:13:16.177Z,101009.27
2018-12-17T04:14:21.667Z,101005.05
2018-12-17T04:15:27.755Z,101003.84
2018-12-17T04:16:33.255Z,101007.59
2018-12-17T04:17:38.713Z,101005.80
2018-12-17T04:18:44.087Z,101004.58
2018-12-17T04:19:49.531Z,101001.13
2018-12-17T04:20:55.224Z,101006.59
2018-12-17T04:22:00.718Z,101008.26
2018-12-17T04:23:06.147Z,101009.56
2018-12-17T04:24:11.620Z,101010.79
2018-12-17T04:25:17.086Z,101012.05
2018-12-17T04:26:22.640Z,101012.93
2018-12-17T04:27:28.116Z,101009.59
2018-12-17T04:28:33.604Z,101010.84
2018-12-17T04:29:39.039Z,101011.23
2018-12-17T04:30:44.441Z,101011.23
2018-12-17T04:31:49.979Z,101007.05
2018-12-17T04:32:55.402Z,101002.00
2018-12-17T04:34:00.858Z,101003.27
2018-12-17T04:35:06.554Z,101003.70
2018-12-17T04:36:12.462Z,101006.67
2018-12-17T04:37:17.853Z,101014.27
2018-12-17T04:38:23.288Z,101004.96
2018-12-17T04:39:28.785Z,101004.94
2018-12-17T04:40:34.199Z,101011.66
2018-12-17T04:41:39.627Z,101005.79
2018-12-17T04:42:45.076Z,101012.48
2018-12-17T04:43:50.831Z,101009.13
2018-12-17T04:44:56.295Z,101009.14
2018-12-17T04:46:01.876Z,101011.67
2018-12-17T04:47:07.332Z,101016.31
2018-12-17T04:48:12.749Z,101012.99
2018-12-17T04:49:18.186Z,101018.84
2018-12-17T04:50:23.641Z,101015.88
2018-12-17T04:51:29.209Z,101014.20
2018-12-17T04:52:34.677Z,101017.20
2018-12-17T04:53:40.194Z,101016.77
2018-12-17T04:54:45.652Z,101013.83
2018-12-17T04:55:51.252Z,101020.21
2018-12-17T04:56:56.742Z,101015.60
2018-12-17T04:58:02.560Z,101017.32
2018-12-17T04:59:14.357Z,101010.52
2018-12-17T05:00:15.641Z,101020.66
2018-12-17T05:01:21.077Z,101017.30
2018-12-17T05:02:26.525Z,101019.86
2018-12-17T05:03:32.207Z,101015.64
2018-12-17T05:04:37.682Z,101020.70
2018-12-17T05:05:43.084Z,101016.51
2018-12-17T05:06:48.624Z,101016.96
2018-12-17T05:07:54.299Z,101015.68
2018-12-17T05:08:59.890Z,101020.77
2018-12-17T05:10:06.663Z,101011.86
2018-12-17T05:11:12.263Z,101021.14
2018-12-17T05:12:17.666Z,101019.02
2018-12-17T05:13:23.138Z,101021.59
2018-12-17T05:14:28.724Z,101018.66
2018-12-17T05:15:34.618Z,101020.75
2018-12-17T05:16:40.015Z,101024.59
2018-12-17T05:17:45.491Z,101022.52
2018-12-17T05:18:51.159Z,101020.39
2018-12-17T05:19:56.558Z,101020.42
2018-12-17T05:21:02.003Z,101024.24
2018-12-17T05:22:07.500Z,101025.11
2018-12-17T05:23:12.937Z,101023.40
2018-12-17T05:24:18.378Z,101022.16
2018-12-17T05:25:23.892Z,101025.94
2018-12-17T05:26:29.526Z,101024.69
2018-12-17T05:27:35.128Z,101029.78
2018-12-17T05:28:40.673Z,101030.61
2018-12-17T05:29:46.211Z,101029.28
2018-12-17T05:30:51.672Z,101030.55
2018-12-17T05:31:57.296Z,101028.86
2018-12-17T05:33:03.048Z,101031.00
2018-12-17T05:34:08.451Z,101037.75
2018-12-17T05:35:14.086Z,101032.24
2018-12-17T05:36:19.543Z,101030.56
2018-12-17T05:37:25.008Z,101028.88
2018-12-17T05:38:30.633Z,101028.44
2018-12-17T05:39:36.096Z,101031.43
2018-12-17T05:40:41.519Z,101028.91
2018-12-17T05:41:47.035Z,101031.84
2018-12-17T05:42:52.500Z,101031.84
2018-12-17T05:43:58.032Z,101031.46
2018-12-17T05:45:03.683Z,101034.41
2018-12-17T05:46:09.187Z,101036.52
2018-12-17T05:47:14.834Z,101042.42
2018-12-17T05:48:20.231Z,101036.91
2018-12-17T05:49:25.727Z,101040.72
2018-12-17T05:50:31.193Z,101043.67
2018-12-17T05:51:36.729Z,101047.47
2018-12-17T05:52:42.142Z,101047.50
2018-12-17T05:53:47.647Z,101043.25
2018-12-17T05:54:53.154Z,101039.84
2018-12-17T05:55:58.959Z,101037.31
2018-12-17T05:57:04.456Z,101042.80
2018-12-17T05:58:10.063Z,101045.31
2018-12-17T05:59:15.607Z,101052.08
2018-12-17T06:00:22.647Z,101045.30
2018-12-17T06:01:28.183Z,101051.22
2018-12-17T06:02:33.546Z,101050.80
2018-12-17T06:03:39.038Z,101049.94
2018-12-17T06:04:44.532Z,101055.47
2018-12-17T06:05:49.948Z,101052.94
2018-12-17T06:06:55.473Z,101055.88
2018-12-17T06:08:01.021Z,101059.28
2018-12-17T06:09:11.655Z,101055.49
2018-12-17T06:10:17.163Z,101062.26
2018-12-17T06:11:22.631Z,101066.88
2018-12-17T06:12:28.123Z,101056.30
2018-12-17T06:13:33.726Z,101054.61
2018-12-17T06:14:39.427Z,101053.81
2018-12-17T06:15:44.903Z,101047.48
2018-12-17T06:16:50.363Z,101050.39
2018-12-17T06:17:55.774Z,101063.48
2018-12-17T06:19:01.307Z,101062.23
2018-12-17T06:20:07.375Z,101061.80
2018-12-17T06:21:12.849Z,101063.50
2018-12-17T06:22:18.630Z,101061.39
2018-12-17T06:23:24.286Z,101062.26
2018-12-17T06:24:29.828Z,101058.44
2018-12-17T06:25:35.695Z,101063.50
2018-12-17T06:26:41.135Z,101063.91
2018-12-17T06:27:46.871Z,101063.50
2018-12-17T06:28:52.342Z,101061.80
2018-12-17T06:29:57.827Z,101066.06
2018-12-17T06:31:03.585Z,101068.58
2018-12-17T06:32:09.048Z,101065.62
2018-12-17T06:33:15.750Z,101073.21
2018-12-17T06:34:21.581Z,101077.47
2018-12-17T06:35:27.275Z,101076.17
2018-12-17T06:36:32.987Z,101077.05
2018-12-17T06:37:38.588Z,101074.08
2018-12-17T06:38:44.239Z,101075.36
2018-12-17T06:39:49.879Z,101075.38
2018-12-17T06:40:55.466Z,101069.49
2018-12-17T06:42:00.862Z,101072.03
2018-12-17T06:43:06.410Z,101075.81
2018-12-17T06:44:12.227Z,101077.13
2018-12-17T06:45:17.666Z,101073.69
2018-12-17T06:46:23.098Z,101079.20
2018-12-17T06:47:28.703Z,101077.08
2018-12-17T06:48:34.194Z,101072.02
2018-12-17T06:49:40.050Z,101071.20
2018-12-17T06:50:45.586Z,101075.00
2018-12-17T06:51:51.653Z,101073.28
2018-12-17T06:52:57.106Z,101072.45
2018-12-17T06:54:02.637Z,101070.77
2018-12-17T06:55:08.557Z,101074.95
2018-12-17T06:56:13.989Z,101073.27
2018-12-17T06:57:19.533Z,101074.13
2018-12-17T06:58:25.487Z,101076.63
2018-12-17T06:59:31.422Z,101077.91
2018-12-17T07:00:37.120Z,101074.95
2018-12-17T07:01:42.695Z,101077.52
2018-12-17T07:02:48.196Z,101076.22
2018-12-17T07:03:53.713Z,101079.19
2018-12-17T07:04:59.140Z,101085.56
2018-12-17T07:06:04.664Z,101085.57
2018-12-17T07:07:10.178Z,101084.75
2018-12-17T07:08:18.887Z,101087.71
2018-12-17T07:09:25.137Z,101088.91
2018-12-17T07:10:30.801Z,101085.97
2018-12-17T07:11:36.332Z,101089.77
2018-12-17T07:12:41.855Z,101084.27
2018-12-17T07:13:47.354Z,101088.91
2018-12-17T07:14:52.949Z,101089.80
2018-12-17T07:15:58.671Z,101083.86
2018-12-17T07:17:04.423Z,101089.70
2018-12-17T07:18:09.958Z,101082.95
2018-12-17T07:19:15.444Z,101089.36
2018-12-17T07:20:20.989Z,101090.19
2018-12-17T07:21:26.487Z,101092.75
2018-12-17T07:22:31.970Z,101091.89
2018-12-17T07:23:37.399Z,101088.95
2018-12-17T07:24:43.063Z,101089.77
2018-12-17T07:25:48.551Z,101091.44
2018-12-17T07:26:53.980Z,101093.55
2018-12-17T07:27:59.456Z,101095.28
2018-12-17T07:29:04.990Z,101093.99
2018-12-17T07:30:10.919Z,101091.05
2018-12-17T07:31:16.371Z,101091.89
2018-12-17T07:32:21.803Z,101095.73
2018-12-17T07:33:27.611Z,101094.05
2018-12-17T07:34:33.359Z,101094.05
2018-12-17T07:35:38.880Z,101095.70
2018-12-17T07:36:44.386Z,101093.19
2018-12-17T07:37:49.880Z,101095.31
2018-12-17T07:38:55.274Z,101095.29
2018-12-17T07:40:01.078Z,101092.78
2018-12-17T07:41:06.549Z,101097.84
2018-12-17T07:42:12.019Z,101097.04
2018-12-17T07:43:17.923Z,101096.58
2018-12-17T07:44:23.629Z,101099.56
2018-12-17T07:45:29.251Z,101099.98
2018-12-17T07:46:35.291Z,101103.78
2018-12-17T07:47:40.779Z,101102.87
2018-12-17T07:48:46.299Z,101107.94
2018-12-17T07:49:51.771Z,101106.66
2018-12-17T07:50:57.257Z,101101.98
2018-12-17T07:52:02.808Z,101106.23
2018-12-17T07:53:08.367Z,101109.19
2018-12-17T07:54:13.927Z,101110.91
2018-12-17T07:55:19.815Z,101116.41
2018-12-17T07:56:25.274Z,101114.23
2018-12-17T07:57:30.828Z,101112.48
2018-12-17T07:58:36.447Z,101111.69
2018-12-17T07:59:42.314Z,101118.05
2018-12-17T08:00:47.767Z,101113.44
2018-12-17T08:01:53.191Z,101118.52
2018-12-17T08:02:58.685Z,101113.05
2018-12-17T08:04:04.186Z,101120.28
2018-12-17T08:05:09.825Z,101114.39
2018-12-17T08:06:15.263Z,101120.70
2018-12-17T08:07:20.707Z,101126.22
2018-12-17T08:08:26.239Z,101133.80
2018-12-17T08:09:31.786Z,101128.34
2018-12-17T08:10:37.246Z,101130.01
2018-12-17T08:11:42.660Z,101131.27
2018-12-17T08:12:48.108Z,101130.41
2018-12-17T08:13:53.684Z,101130.41
2018-12-17T08:14:59.435Z,101133.39
2018-12-17T08:16:04.987Z,101134.26
2018-12-17T08:17:10.599Z,101136.75
2018-12-17T08:18:24.383Z,101136.75
2018-12-17T08:19:29.839Z,101132.96
2018-12-17T08:20:35.336Z,101138.87
2018-12-17T08:21:40.860Z,101138.03
2018-12-17T08:22:46.387Z,101132.57
2018-12-17T08:23:51.833Z,101140.62
2018-12-17T08:24:57.416Z,101142.28
2018-12-17T08:26:02.936Z,101144.33
2018-12-17T08:27:08.480Z,101146.05
2018-12-17T08:28:13.980Z,101145.24
2018-12-17T08:29:19.414Z,101148.63
2018-12-17T08:30:24.846Z,101146.05
2018-12-17T08:31:30.287Z,101152.42
2018-12-17T08:32:35.862Z,101152.42
2018-12-17T08:33:41.496Z,101145.16
2018-12-17T08:34:47.325Z,101149.46
2018-12-17T08:35:52.862Z,101149.09
2018-12-17T08:36:58.428Z,101153.78
2018-12-17T08:38:03.929Z,101148.69
2018-12-17T08:39:09.826Z,101149.14
2018-12-17T08:40:15.417Z,101155.94
2018-12-17T08:41:20.878Z,101155.09
2018-12-17T08:42:26.375Z,101159.72
2018-12-17T08:43:31.913Z,101157.57
2018-12-17T08:44:37.302Z,101155.45
2018-12-17T08:45:42.799Z,101157.17
2018-12-17T08:46:48.218Z,101161.84
2018-12-17T08:47:54.088Z,101160.13
2018-12-17T08:48:59.657Z,101160.52
2018-12-17T08:50:05.946Z,101154.63
2018-12-17T08:51:11.388Z,101156.33
2018-12-17T08:52:17.024Z,101157.20
2018-12-17T08:53:22.459Z,101160.19
2018-12-17T08:54:28.040Z,101156.38
2018-12-17T08:55:33.675Z,101155.96
2018-12-17T08:56:39.207Z,101153.44
2018-12-17T08:57:44.874Z,101154.70
2018-12-17T08:58:50.601Z,101150.91
2018-12-17T08:59:56.277Z,101154.31
2018-12-17T09:01:01.948Z,101156.36
2018-12-17T09:02:07.664Z,101164.44
2018-12-17T09:03:13.226Z,101159.76
2018-12-17T09:04:18.742Z,101158.52
2018-12-17T09:05:24.451Z,101158.10
2018-12-17T09:06:29.906Z,101164.00
2018-12-17T09:07:35.453Z,101164.44
2018-12-17T09:08:41.011Z,101166.56
2018-12-17T09:09:46.395Z,101164.89
2018-12-17T09:10:52.093Z,101166.61
2018-12-17T09:11:57.701Z,101171.70
2018-12-17T09:13:03.140Z,101167.91
2018-12-17T09:14:08.706Z,101177.20
2018-12-17T09:15:14.519Z,101175.10
2018-12-17T09:16:20.011Z,101176.39
2018-12-17T09:17:25.536Z,101172.59
2018-12-17T09:18:30.955Z,101172.56
2018-12-17T09:19:36.392Z,101171.69
2018-12-17T09:20:41.826Z,101172.97
2018-12-17T09:21:47.274Z,101177.26
2018-12-17T09:22:53.055Z,101176.41
2018-12-17T09:23:58.471Z,101172.19
2018-12-17T09:25:04.576Z,101174.77
2018-12-17T09:26:10.073Z,101178.56
2018-12-17T09:27:15.876Z,101173.52
2018-12-17T09:28:21.373Z,101176.43
2018-12-17T09:29:27.121Z,101173.89
2018-12-17T09:30:32.767Z,101172.62
2018-12-17T09:31:38.211Z,101180.67
2018-12-17T09:32:43.657Z,101188.25
2018-12-17T09:33:49.050Z,101177.67
2018-12-17T09:34:54.704Z,101182.76
2018-12-17T09:36:02.281Z,101186.97
2018-12-17T09:37:07.760Z,101180.66
2018-12-17T09:38:13.175Z,101192.52
2018-12-17T09:39:18.684Z,101185.36
2018-12-17T09:40:24.284Z,101189.16
2018-12-17T09:41:30.206Z,101189.13
2018-12-17T09:42:35.723Z,101188.67
2018-12-17T09:43:41.310Z,101186.55
2018-12-17T09:44:46.710Z,101187.00
2018-12-17T09:45:52.558Z,101189.12
2018-12-17T09:46:58.096Z,101187.02
2018-12-17T09:48:03.693Z,101191.28
2018-12-17T09:49:09.323Z,101189.97
2018-12-17T09:50:16.628Z,101193.73
2018-12-17T09:51:22.514Z,101190.36
2018-12-17T09:52:28.049Z,101195.87
2018-12-17T09:53:33.650Z,101198.02
2018-12-17T09:54:39.127Z,101198.00
2018-12-17T09:55:44.936Z,101197.58
2018-12-17T09:56:50.434Z,101194.62
2018-12-17T09:57:56.303Z,101196.34
2018-12-17T09:59:01.825Z,101193.39
2018-12-17T10:00:08.467Z,101198.90
2018-12-17T10:01:14.015Z,101195.94
2018-12-17T10:02:19.449Z,101190.44
2018-12-17T10:03:25.139Z,101191.71
2018-12-17T10:04:30.679Z,101194.67
2018-12-17T10:05:36.306Z,101192.15
2018-12-17T10:06:41.807Z,101189.57
2018-12-17T10:07:47.463Z,101194.69
2018-12-17T10:08:52.986Z,101190.04
2018-12-17T10:09:58.511Z,101190.02
2018-12-17T10:11:04.064Z,101193.84
2018-12-17T10:12:09.572Z,101201.06
2018-12-17T10:13:15.224Z,101189.20
2018-12-17T10:14:20.988Z,101193.86
2018-12-17T10:15:26.555Z,101191.32
2018-12-17T10:16:32.081Z,101192.64
2018-12-17T10:17:37.499Z,101197.30
2018-12-17T10:18:43.353Z,101192.23
2018-12-17T10:19:48.869Z,101192.66
2018-12-17T10:20:54.376Z,101190.98
2018-12-17T10:21:59.853Z,101188.03
2018-12-17T10:23:05.302Z,101193.13
2018-12-17T10:24:10.875Z,101188.49
2018-12-17T10:25:16.311Z,101190.19
2018-12-17T10:26:22.290Z,101191.92
2018-12-17T10:27:27.992Z,101194.86
2018-12-17T10:28:33.426Z,101193.17
2018-12-17T10:29:38.956Z,101195.30
2018-12-17T10:30:44.623Z,101189.36
2018-12-17T10:31:50.063Z,101192.34
2018-12-17T10:32:55.499Z,101189.80
2018-12-17T10:34:00.952Z,101189.37
2018-12-17T10:35:07.068Z,101195.30
2018-12-17T10:36:12.626Z,101193.20
2018-12-17T10:37:18.063Z,101186.85
2018-12-17T10:38:23.542Z,101190.22
2018-12-17T10:39:29.039Z,101190.66
2018-12-17T10:40:38.825Z,101188.11
2018-12-17T10:41:44.359Z,101186.84
2018-12-17T10:42:49.894Z,101186.81
2018-12-17T10:43:55.314Z,101189.80
2018-12-17T10:45:01.006Z,101187.25
2018-12-17T10:46:06.552Z,101186.84
2018-12-17T10:47:12.071Z,101188.94
2018-12-17T10:48:17.925Z,101188.53
2018-12-17T10:49:23.369Z,101190.63
2018-12-17T10:50:29.473Z,101195.30
2018-12-17T10:51:35.276Z,101190.66
2018-12-17T10:52:40.790Z,101190.20
2018-12-17T10:53:46.542Z,101187.23
2018-12-17T10:54:52.170Z,101183.02
2018-12-17T10:55:57.582Z,101189.81
2018-12-17T10:57:03.380Z,101185.58
2018-12-17T10:58:08.935Z,101181.78
2018-12-17T10:59:14.358Z,101179.70
2018-12-17T11:00:25.210Z,101186.00
2018-12-17T11:01:35.907Z,101183.45
2018-12-17T11:02:41.527Z,101189.81
2018-12-17T11:03:55.507Z,101181.81
2018-12-17T11:05:17.594Z,101186.05
2018-12-17T11:06:23.435Z,101184.78
2018-12-17T11:07:28.864Z,101182.67
2018-12-17T11:08:34.294Z,101187.77
2018-12-17T11:09:40.062Z,101196.25
2018-12-17T11:10:45.488Z,101194.13
2018-12-17T11:11:51.073Z,101182.69
2018-12-17T11:12:56.783Z,101185.23
2018-12-17T11:14:02.517Z,101190.73
2018-12-17T11:15:11.022Z,101187.78
2018-12-17T11:16:16.523Z,101191.16
2018-12-17T11:17:21.980Z,101192.84
2018-12-17T11:18:27.420Z,101192.84
2018-12-17T11:19:32.832Z,101187.34
2018-12-17T11:20:38.346Z,101189.46
2018-12-17T11:21:43.767Z,101192.83
2018-12-17T11:22:49.181Z,101189.02
2018-12-17T11:23:54.700Z,101183.95
2018-12-17T11:25:00.099Z,101183.53
2018-12-17T11:26:05.556Z,101183.53
2018-12-17T11:27:11.122Z,101182.69
2018-12-17T11:28:16.666Z,101181.41
2018-12-17T11:29:22.195Z,101191.57
2018-12-17T11:30:27.753Z,101189.03
2018-12-17T11:31:33.247Z,101189.89
2018-12-17T11:33:59.462Z,101195.38
2018-12-17T11:35:05.078Z,101193.27
2018-12-17T11:36:10.519Z,101189.45
2018-12-17T11:37:16.058Z,101189.47
2018-12-17T11:38:21.635Z,101183.52
2018-12-17T11:39:27.050Z,101189.47
2018-12-17T11:40:32.648Z,101186.92
2018-12-17T11:41:38.083Z,101186.48
2018-12-17T11:42:43.723Z,101185.65
2018-12-17T11:43:49.277Z,101184.39
2018-12-17T11:44:54.863Z,101186.48
2018-12-17T11:47:18.647Z,101187.77
2018-12-17T11:48:24.132Z,101189.03
2018-12-17T11:49:29.717Z,101181.02
2018-12-17T11:50:35.218Z,101179.29
2018-12-17T11:51:40.650Z,101181.44
2018-12-17T11:52:46.091Z,101181.84
2018-12-17T11:53:51.981Z,101184.39
2018-12-17T11:54:57.514Z,101183.55
2018-12-17T11:56:03.171Z,101183.12
2018-12-17T11:58:17.194Z,101180.16
2018-12-17T11:59:22.757Z,101189.48
2018-12-17T12:00:28.814Z,101185.25
2018-12-17T12:01:34.331Z,101189.07
2018-12-17T12:02:39.786Z,101187.80
2018-12-17T12:03:45.370Z,101188.66
2018-12-17T12:04:50.874Z,101190.34
2018-12-17T12:05:56.291Z,101188.64
2018-12-17T12:07:01.826Z,101197.13
2018-12-17T12:08:07.562Z,101196.28
2018-12-17T12:09:15.091Z,101195.02
2018-12-17T12:10:20.556Z,101200.11
2018-12-17T12:11:26.016Z,101200.10
2018-12-17T12:12:31.515Z,101200.55
2018-12-17T12:13:37.014Z,101200.52
2018-12-17T12:14:42.707Z,101203.48
2018-12-17T12:15:48.136Z,101200.11
2018-12-17T12:16:53.579Z,101198.41
2018-12-17T12:17:59.083Z,101198.85
2018-12-17T12:19:04.555Z,101200.53
2018-12-17T12:20:10.932Z,101199.70
2018-12-17T12:21:16.481Z,101200.95
2018-12-17T12:22:21.994Z,101202.23
2018-12-17T12:23:27.512Z,101201.39
2018-12-17T12:24:32.998Z,101201.38
2018-12-17T12:25:38.930Z,101201.79
2018-12-17T12:26:44.414Z,101199.66
2018-12-17T12:27:49.996Z,101197.13
2018-12-17T12:28:55.390Z,101200.95
2018-12-17T12:30:01.068Z,101205.61
2018-12-17T12:31:06.498Z,101204.77
2018-12-17T12:32:12.342Z,101207.72
2018-12-17T12:33:17.897Z,101206.02
2018-12-17T12:34:23.290Z,101210.25